createdAt,value
2018-06-11T00:01:27.013Z,17.80
2018-06-11T00:03:55.393Z,17.80
2018-06-11T00:06:23.696Z,17.80
2018-06-11T00:08:51.998Z,17.90
2018-06-11T00:11:20.289Z,17.80
2018-06-11T00:16:16.608Z,17.90
2018-06-11T00:18:44.911Z,17.90
2018-06-11T00:21:13.239Z,17.90
2018-06-11T00:23:41.508Z,17.90
2018-06-11T00:26:09.811Z,17.90
2018-06-11T00:28:38.143Z,18.00
2018-06-11T00:31:06.447Z,18.00
2018-06-11T00:36:02.800Z,18.10
2018-06-11T00:38:31.106Z,18.10
2018-06-11T00:40:59.406Z,18.10
2018-06-11T00:43:27.704Z,18.10
2018-06-11T00:45:55.992Z,18.10
2018-06-11T00:48:24.299Z,18.10
2018-06-11T00:50:52.656Z,18.20
2018-06-11T00:53:20.942Z,18.20
2018-06-11T00:56:00.501Z,18.20
2018-06-11T00:58:28.805Z,18.20
2018-06-11T01:00:57.085Z,18.20
2018-06-11T01:03:25.403Z,18.20
2018-06-11T01:05:53.695Z,18.20
2018-06-11T01:08:22.021Z,18.20
2018-06-11T01:10:50.333Z,18.10
2018-06-11T01:13:18.624Z,18.10
2018-06-11T01:15:46.911Z,18.10
2018-06-11T01:18:15.186Z,18.00
2018-06-11T01:20:43.495Z,18.10
2018-06-11T01:23:11.775Z,18.10
2018-06-11T01:25:40.061Z,18.00
2018-06-11T01:28:08.388Z,18.00
2018-06-11T01:30:36.660Z,18.00
2018-06-11T01:33:05.000Z,18.10
2018-06-11T01:35:33.289Z,18.10
2018-06-11T01:38:01.675Z,18.10
2018-06-11T01:40:29.963Z,18.10
2018-06-11T01:42:58.257Z,18.10
2018-06-11T01:45:26.552Z,18.10
2018-06-11T01:47:54.845Z,18.00
2018-06-11T01:50:23.177Z,18.00
2018-06-11T01:52:51.477Z,18.00
2018-06-11T01:57:47.788Z,18.00
2018-06-11T02:02:44.091Z,17.90
2018-06-11T02:05:12.505Z,17.80
2018-06-11T02:07:40.819Z,17.80
2018-06-11T02:10:09.320Z,17.80
2018-06-11T02:12:37.604Z,17.70
2018-06-11T02:15:05.918Z,17.60
2018-06-11T02:17:34.200Z,17.60
2018-06-11T02:20:02.538Z,17.50
2018-06-11T02:22:30.853Z,17.50
2018-06-11T02:24:59.142Z,17.40
2018-06-11T02:27:27.432Z,17.40
2018-06-11T02:29:55.723Z,17.40
2018-06-11T02:32:24.022Z,17.30
2018-06-11T02:34:52.402Z,17.30
2018-06-11T02:37:20.700Z,17.30
2018-06-11T02:39:48.980Z,17.30
2018-06-11T02:42:17.309Z,17.20
2018-06-11T02:44:45.581Z,17.20
2018-06-11T02:47:13.894Z,17.10
2018-06-11T02:49:42.194Z,17.10
2018-06-11T02:52:10.494Z,17.10
2018-06-11T02:54:38.760Z,17.00
2018-06-11T02:57:07.070Z,17.00
2018-06-11T03:02:03.384Z,17.10
2018-06-11T03:04:31.672Z,17.00
2018-06-11T03:11:56.014Z,17.00
2018-06-11T03:14:30.555Z,17.00
2018-06-11T03:16:58.900Z,17.00
2018-06-11T03:19:27.191Z,17.00
2018-06-11T03:21:55.455Z,17.00
2018-06-11T03:24:23.735Z,17.00
2018-06-11T03:26:52.012Z,17.00
2018-06-11T03:29:20.314Z,17.00
2018-06-11T03:31:48.609Z,17.00
2018-06-11T03:34:16.895Z,17.00
2018-06-11T03:36:45.195Z,16.90
2018-06-11T03:39:13.485Z,16.90
2018-06-11T03:41:41.788Z,16.90
2018-06-11T03:44:10.062Z,16.90
2018-06-11T03:49:06.357Z,16.90
2018-06-11T03:51:34.629Z,17.00
2018-06-11T03:54:02.941Z,17.00
2018-06-11T03:56:31.271Z,17.00
2018-06-11T04:01:27.573Z,17.10
2018-06-11T04:03:55.896Z,17.10
2018-06-11T04:06:24.219Z,17.10
2018-06-11T04:08:52.505Z,17.20
2018-06-11T04:11:20.797Z,17.20
2018-06-11T04:13:49.066Z,17.20
2018-06-11T04:16:19.341Z,17.20
2018-06-11T04:18:47.634Z,17.30
2018-06-11T04:21:15.952Z,17.30
2018-06-11T04:23:44.279Z,17.40
2018-06-11T04:26:12.576Z,17.40
2018-06-11T04:28:40.842Z,17.50
2018-06-11T04:31:09.182Z,17.60
2018-06-11T04:33:37.464Z,17.70
2018-06-11T04:36:05.764Z,17.80
2018-06-11T04:38:34.071Z,18.00
2018-06-11T04:41:02.343Z,18.10
2018-06-11T04:43:30.661Z,18.30
2018-06-11T04:45:58.960Z,18.50
2018-06-11T04:50:55.304Z,18.80
2018-06-11T04:53:23.625Z,19.00
2018-06-11T04:55:51.928Z,19.10
2018-06-11T04:58:20.220Z,19.10
2018-06-11T05:00:48.521Z,19.00
2018-06-11T05:03:16.808Z,19.00
2018-06-11T05:05:45.100Z,19.00
2018-06-11T05:08:13.402Z,19.00
2018-06-11T05:10:41.694Z,19.00
2018-06-11T05:13:09.984Z,19.00
2018-06-11T05:15:38.288Z,18.90
2018-06-11T05:18:06.575Z,18.90
2018-06-11T05:20:34.882Z,18.90
2018-06-11T05:23:03.178Z,18.90
2018-06-11T05:25:31.467Z,18.90
2018-06-11T05:30:27.762Z,19.00
2018-06-11T05:32:56.090Z,19.10
2018-06-11T05:35:24.434Z,19.10
2018-06-11T05:37:52.726Z,19.20
2018-06-11T05:40:21.066Z,19.20
2018-06-11T05:42:49.296Z,19.20
2018-06-11T05:45:17.613Z,19.30
2018-06-11T05:47:45.888Z,19.40
2018-06-11T05:50:14.178Z,19.70
2018-06-11T05:52:42.484Z,19.80
2018-06-11T05:57:38.810Z,20.20
2018-06-11T06:00:07.102Z,20.30
2018-06-11T06:02:35.404Z,20.40
2018-06-11T06:05:03.734Z,20.60
2018-06-11T06:07:32.051Z,20.70
2018-06-11T06:10:00.348Z,20.90
2018-06-11T06:14:56.651Z,21.20
2018-06-11T06:17:24.928Z,21.40
2018-06-11T06:19:53.223Z,21.30
2018-06-11T06:22:21.534Z,21.30
2018-06-11T06:24:49.822Z,21.30
2018-06-11T06:27:18.167Z,21.30
2018-06-11T06:29:46.451Z,21.20
2018-06-11T06:32:14.735Z,21.30
2018-06-11T06:34:43.126Z,21.20
2018-06-11T06:39:39.384Z,21.10
2018-06-11T06:42:07.672Z,21.10
2018-06-11T06:44:35.961Z,21.10
2018-06-11T06:47:04.293Z,21.00
2018-06-11T06:49:32.577Z,21.00
2018-06-11T06:52:00.863Z,21.00
2018-06-11T06:54:29.183Z,21.00
2018-06-11T06:56:57.475Z,21.10
2018-06-11T06:59:25.783Z,21.10
2018-06-11T07:01:54.102Z,21.10
2018-06-11T07:04:22.387Z,21.30
2018-06-11T07:06:50.684Z,21.40
2018-06-11T07:09:18.978Z,21.60
2018-06-11T07:11:47.291Z,21.80
2018-06-11T07:14:15.570Z,21.80
2018-06-11T07:16:43.839Z,21.80
2018-06-11T07:19:12.174Z,21.90
2018-06-11T07:21:40.461Z,21.90
2018-06-11T07:24:08.805Z,22.20
2018-06-11T07:26:37.097Z,22.50
2018-06-11T07:31:33.505Z,22.60
2018-06-11T07:34:02.031Z,22.40
2018-06-11T07:36:30.343Z,22.10
2018-06-11T07:38:58.635Z,22.00
2018-06-11T07:41:26.909Z,21.80
2018-06-11T07:43:55.179Z,21.70
2018-06-11T07:46:23.474Z,21.60
2018-06-11T07:48:51.767Z,21.40
2018-06-11T07:51:20.041Z,21.40
2018-06-11T07:53:48.336Z,21.40
2018-06-11T07:56:16.619Z,21.50
2018-06-11T07:58:44.911Z,21.70
2018-06-11T08:01:13.231Z,21.90
2018-06-11T08:03:41.521Z,22.00
2018-06-11T08:06:09.815Z,22.20
2018-06-11T08:08:38.201Z,22.30
2018-06-11T08:11:06.525Z,22.40
2018-06-11T08:13:34.845Z,22.50
2018-06-11T08:16:03.131Z,22.60
2018-06-11T08:18:31.415Z,22.80
2018-06-11T08:20:59.699Z,22.80
2018-06-11T08:23:27.989Z,22.90
2018-06-11T08:25:56.293Z,22.90
2018-06-11T08:28:24.577Z,23.00
2018-06-11T08:30:52.877Z,23.10
2018-06-11T08:33:21.181Z,23.20
2018-06-11T08:35:49.471Z,23.30
2018-06-11T08:38:17.826Z,23.30
2018-06-11T08:40:46.091Z,23.30
2018-06-11T08:43:14.435Z,23.40
2018-06-11T08:45:42.741Z,23.40
2018-06-11T08:50:39.036Z,23.50
2018-06-11T08:53:07.313Z,23.60
2018-06-11T08:55:35.634Z,23.50
2018-06-11T08:58:03.989Z,23.40
2018-06-11T09:00:32.373Z,23.50
2018-06-11T09:03:00.681Z,23.60
2018-06-11T09:05:28.969Z,23.70
2018-06-11T09:07:57.268Z,23.90
2018-06-11T09:10:25.566Z,24.00
2018-06-11T09:12:53.848Z,24.20
2018-06-11T09:17:50.201Z,24.40
2018-06-11T09:20:18.514Z,24.40
2018-06-11T09:22:46.834Z,24.40
2018-06-11T09:25:15.110Z,24.40
2018-06-11T09:27:43.415Z,24.50
2018-06-11T09:30:11.706Z,24.60
2018-06-11T09:32:39.988Z,24.60
2018-06-11T09:35:08.327Z,24.60
2018-06-11T09:37:37.524Z,24.70
2018-06-11T09:40:05.894Z,24.60
2018-06-11T09:42:34.193Z,24.70
2018-06-11T09:45:02.502Z,24.70
2018-06-11T09:47:30.817Z,24.80
2018-06-11T09:49:59.120Z,24.80
2018-06-11T09:52:27.416Z,24.90
2018-06-11T09:54:55.725Z,25.00
2018-06-11T09:59:52.069Z,25.00
2018-06-11T10:02:20.363Z,25.00
2018-06-11T10:04:48.648Z,25.10
2018-06-11T10:07:16.928Z,25.10
2018-06-11T10:09:45.209Z,25.20
2018-06-11T10:12:13.620Z,25.40
2018-06-11T10:14:41.830Z,25.50
2018-06-11T10:19:38.152Z,25.70
2018-06-11T10:22:06.446Z,25.70
2018-06-11T10:24:34.758Z,25.70
2018-06-11T10:27:03.044Z,25.80
2018-06-11T10:29:31.367Z,25.90
2018-06-11T10:34:27.716Z,26.10
2018-06-11T10:36:56.074Z,26.20
2018-06-11T10:39:24.370Z,26.30
2018-06-11T10:41:52.648Z,26.40
2018-06-11T10:44:20.962Z,26.60
2018-06-11T10:46:49.272Z,26.80
2018-06-11T10:49:17.599Z,26.80
2018-06-11T10:51:45.883Z,26.50
2018-06-11T10:54:14.190Z,26.30
2018-06-11T10:56:42.488Z,26.10
2018-06-11T10:59:10.772Z,25.90
2018-06-11T11:01:39.089Z,25.70
2018-06-11T11:04:07.385Z,25.50
2018-06-11T11:06:35.712Z,25.30
2018-06-11T11:09:05.806Z,25.20
2018-06-11T11:11:34.350Z,25.30
2018-06-11T11:14:02.638Z,25.50
2018-06-11T11:18:58.962Z,26.00
2018-06-11T11:21:27.270Z,26.30
2018-06-11T11:23:55.609Z,26.50
2018-06-11T11:26:23.938Z,26.70
2018-06-11T11:28:52.240Z,27.00
2018-06-11T11:33:48.644Z,27.30
2018-06-11T11:36:16.862Z,27.30
2018-06-11T11:38:45.191Z,27.20
2018-06-11T11:41:13.468Z,27.00
2018-06-11T11:43:41.758Z,26.90
2018-06-11T11:46:10.057Z,26.80
2018-06-11T11:48:38.352Z,26.70
2018-06-11T11:51:06.719Z,26.80
2018-06-11T11:56:02.996Z,27.00
2018-06-11T11:58:31.295Z,27.00
2018-06-11T12:00:59.577Z,27.00
2018-06-11T12:03:27.919Z,27.10
2018-06-11T12:05:56.230Z,27.10
2018-06-11T12:08:24.534Z,27.00
2018-06-11T12:10:52.824Z,27.10
2018-06-11T12:13:21.099Z,27.40
2018-06-11T12:15:49.508Z,27.70
2018-06-11T12:18:17.842Z,28.00
2018-06-11T12:20:46.141Z,27.80
2018-06-11T12:23:14.461Z,26.50
2018-06-11T12:25:42.775Z,24.80
2018-06-11T12:28:11.065Z,23.60
2018-06-11T12:30:39.340Z,22.60
2018-06-11T12:33:07.621Z,21.60
2018-06-11T12:35:35.931Z,20.60
2018-06-11T12:38:04.241Z,19.80
2018-06-11T12:40:32.584Z,19.20
2018-06-11T12:43:00.870Z,18.90
2018-06-11T12:45:29.163Z,18.80
2018-06-11T12:47:57.452Z,18.80
2018-06-11T12:50:25.737Z,18.70
2018-06-11T12:52:54.102Z,18.70
2018-06-11T12:55:22.395Z,18.90
2018-06-11T12:57:50.687Z,19.00
2018-06-11T13:00:18.977Z,19.30
2018-06-11T13:02:47.256Z,19.50
2018-06-11T13:05:15.658Z,19.70
2018-06-11T13:10:11.932Z,19.60
2018-06-11T13:12:40.229Z,19.70
2018-06-11T13:15:08.541Z,19.60
2018-06-11T13:17:36.832Z,19.60
2018-06-11T13:20:05.129Z,19.70
2018-06-11T13:22:33.471Z,19.70
2018-06-11T13:25:01.889Z,19.60
2018-06-11T13:27:32.637Z,19.50
2018-06-11T13:30:00.944Z,19.30
2018-06-11T13:32:29.257Z,19.10
2018-06-11T13:34:57.583Z,19.00
2018-06-11T13:37:25.868Z,18.90
2018-06-11T13:39:54.155Z,18.90
2018-06-11T13:44:50.599Z,18.60
2018-06-11T13:47:18.881Z,18.50
2018-06-11T13:49:47.196Z,18.40
2018-06-11T13:52:15.470Z,18.30
2018-06-11T14:02:07.864Z,18.30
2018-06-11T14:04:36.156Z,18.40
2018-06-11T14:07:04.448Z,18.50
2018-06-11T14:12:01.323Z,18.50
2018-06-11T14:16:57.709Z,18.50
2018-06-11T14:19:26.016Z,18.50
2018-06-11T14:21:54.309Z,18.30
2018-06-11T14:24:22.599Z,18.20
2018-06-11T14:26:50.893Z,18.10
2018-06-11T14:29:19.173Z,18.10
2018-06-11T14:31:47.511Z,18.10
2018-06-11T14:34:15.799Z,18.10
2018-06-11T14:36:44.065Z,18.10
2018-06-11T14:39:12.353Z,18.10
2018-06-11T14:41:40.646Z,18.10
2018-06-11T14:44:08.981Z,18.10
2018-06-11T14:46:37.263Z,18.00
2018-06-11T14:49:05.589Z,17.90
2018-06-11T14:51:33.883Z,17.90
2018-06-11T14:54:02.197Z,17.90
2018-06-11T14:56:30.579Z,17.80
2018-06-11T14:58:58.869Z,17.70
2018-06-11T15:01:27.171Z,17.60
2018-06-11T15:03:55.528Z,17.60
2018-06-11T15:06:23.837Z,17.60
2018-06-11T15:11:20.296Z,17.70
2018-06-11T15:13:48.645Z,17.70
2018-06-11T15:16:16.949Z,17.80
2018-06-11T15:18:45.219Z,17.80
2018-06-11T15:21:13.578Z,17.90
2018-06-11T15:23:41.969Z,18.00
2018-06-11T15:26:10.267Z,18.10
2018-06-11T15:28:38.620Z,18.30
2018-06-11T15:31:06.913Z,18.30
2018-06-11T15:33:35.241Z,18.40
2018-06-11T15:38:31.535Z,18.50
2018-06-11T15:40:59.821Z,18.50
2018-06-11T15:43:28.117Z,18.50
2018-06-11T15:45:56.411Z,18.50
2018-06-11T15:48:24.707Z,18.50
2018-06-11T15:50:52.992Z,18.40
2018-06-11T15:53:21.277Z,18.40
2018-06-11T15:55:49.706Z,18.40
2018-06-11T15:58:18.120Z,18.40
2018-06-11T16:00:46.449Z,18.40
2018-06-11T16:03:14.812Z,18.50
2018-06-11T16:08:17.734Z,18.40
2018-06-11T16:10:46.093Z,18.40
2018-06-11T16:13:14.397Z,18.30
2018-06-11T16:15:42.693Z,18.30
2018-06-11T16:18:10.979Z,18.20
2018-06-11T16:20:39.279Z,18.20
2018-06-11T16:23:07.600Z,18.10
2018-06-11T16:25:35.885Z,18.10
2018-06-11T16:28:04.299Z,18.20
2018-06-11T16:30:32.586Z,18.20
2018-06-11T16:33:00.883Z,18.30
2018-06-11T16:37:57.304Z,18.50
2018-06-11T16:40:25.648Z,18.60
2018-06-11T16:42:54.091Z,18.50
2018-06-11T16:45:22.320Z,18.60
2018-06-11T16:47:50.649Z,18.60
2018-06-11T16:50:18.935Z,18.60
2018-06-11T16:52:47.247Z,18.70
2018-06-11T16:55:15.596Z,18.70
2018-06-11T16:57:43.902Z,18.80
2018-06-11T17:02:40.266Z,18.90
2018-06-11T17:05:08.575Z,18.90
2018-06-11T17:07:36.889Z,18.80
2018-06-11T17:10:05.207Z,18.80
2018-06-11T17:15:01.569Z,18.70
2018-06-11T17:17:29.865Z,18.70
2018-06-11T17:19:58.179Z,18.70
2018-06-11T17:22:26.461Z,18.70
2018-06-11T17:24:54.828Z,18.70
2018-06-11T17:27:23.113Z,18.70
2018-06-11T17:29:51.415Z,18.70
2018-06-11T17:32:19.705Z,18.60
2018-06-11T17:34:48.039Z,18.60
2018-06-11T17:37:16.395Z,18.60
2018-06-11T17:39:44.730Z,18.70
2018-06-11T17:42:13.135Z,18.80
2018-06-11T17:44:41.449Z,18.90
2018-06-11T17:47:09.749Z,19.00
2018-06-11T17:52:06.259Z,19.00
2018-06-11T17:54:34.560Z,19.00
2018-06-11T17:59:30.970Z,19.00
2018-06-11T18:01:59.357Z,19.00
2018-06-11T18:04:27.771Z,19.00
2018-06-11T18:06:56.041Z,19.00
2018-06-11T18:09:24.463Z,19.00
2018-06-11T18:11:52.821Z,19.00
2018-06-11T18:14:21.171Z,18.90
2018-06-11T18:19:17.537Z,18.70
2018-06-11T18:21:45.897Z,18.70
2018-06-11T18:24:14.244Z,18.60
2018-06-11T18:26:43.599Z,18.60
2018-06-11T18:29:11.947Z,18.60
2018-06-11T18:31:40.277Z,18.50
2018-06-11T18:34:08.623Z,18.50
2018-06-11T18:36:37.315Z,18.50
2018-06-11T18:39:08.149Z,18.50
2018-06-11T18:41:36.912Z,18.40
2018-06-11T18:44:05.441Z,18.40
2018-06-11T18:46:33.862Z,18.40
2018-06-11T18:49:02.310Z,18.40
2018-06-11T18:51:30.719Z,18.40
2018-06-11T18:53:59.060Z,18.30
2018-06-11T18:56:27.472Z,18.30
2018-06-11T18:58:55.839Z,18.30
2018-06-11T19:01:24.193Z,18.20
2018-06-11T19:03:52.588Z,18.20
2018-06-11T19:06:21.039Z,18.20
2018-06-11T19:08:50.331Z,18.10
2018-06-11T19:13:46.809Z,18.00
2018-06-11T19:16:15.179Z,18.00
2018-06-11T19:21:11.690Z,17.90
2018-06-11T19:26:08.194Z,17.70
2018-06-11T19:31:04.740Z,17.60
2018-06-11T19:33:33.116Z,17.50
2018-06-11T19:36:01.502Z,17.50
2018-06-11T19:38:29.927Z,17.50
2018-06-11T19:40:58.326Z,17.50
2018-06-11T19:43:26.761Z,17.50
2018-06-11T19:45:55.123Z,17.60
2018-06-11T19:48:23.461Z,17.60
2018-06-11T19:53:19.953Z,17.60
2018-06-11T19:55:48.324Z,17.50
2018-06-11T19:58:16.698Z,17.50
2018-06-11T20:00:45.075Z,17.40
2018-06-11T20:05:41.642Z,17.40
2018-06-11T20:10:38.458Z,17.50
2018-06-11T20:13:06.969Z,17.50
2018-06-11T20:15:35.314Z,17.50
2018-06-11T20:18:03.658Z,17.60
2018-06-11T20:20:32.115Z,17.60
2018-06-11T20:23:00.482Z,17.60
2018-06-11T20:25:29.209Z,17.60
2018-06-11T20:27:57.671Z,17.60
2018-06-11T20:30:26.034Z,17.60
2018-06-11T20:32:54.374Z,17.50
2018-06-11T20:37:50.828Z,17.40
2018-06-11T20:40:19.220Z,17.40
2018-06-11T20:42:47.566Z,17.40
2018-06-11T20:45:15.884Z,17.40
2018-06-11T20:47:44.205Z,17.40
2018-06-11T20:50:12.556Z,17.30
2018-06-11T20:55:09.001Z,17.40
2018-06-11T20:57:37.332Z,17.40
2018-06-11T21:00:05.867Z,17.40
2018-06-11T21:02:34.188Z,17.40
2018-06-11T21:05:02.490Z,17.30
2018-06-11T21:07:30.833Z,17.30
2018-06-11T21:09:59.135Z,17.30
2018-06-11T21:12:27.442Z,17.20
2018-06-11T21:14:55.735Z,17.20
2018-06-11T21:17:24.033Z,17.20
2018-06-11T21:19:52.352Z,17.20
2018-06-11T21:22:20.646Z,17.20
2018-06-11T21:24:48.952Z,17.20
2018-06-11T21:27:17.260Z,17.20
2018-06-11T21:29:45.574Z,17.20
2018-06-11T21:32:13.904Z,17.20
2018-06-11T21:34:42.182Z,17.20
2018-06-11T21:37:10.468Z,17.20
2018-06-11T21:39:38.764Z,17.20
2018-06-11T21:42:07.065Z,17.20
2018-06-11T21:44:35.405Z,17.30
2018-06-11T21:47:03.723Z,17.30
2018-06-11T21:49:32.009Z,17.30
2018-06-11T21:52:00.321Z,17.20
2018-06-11T21:54:28.586Z,17.30
2018-06-11T21:56:56.906Z,17.30
2018-06-11T22:01:53.271Z,17.30
2018-06-11T22:04:21.559Z,17.30
2018-06-11T22:06:49.918Z,17.30
2018-06-11T22:09:18.226Z,17.30
2018-06-11T22:11:46.528Z,17.30
2018-06-11T22:14:14.806Z,17.30
2018-06-11T22:16:43.086Z,17.20
2018-06-11T22:19:11.415Z,17.20
2018-06-11T22:21:39.700Z,17.20
2018-06-11T22:24:07.969Z,17.20
2018-06-11T22:26:36.322Z,17.20
2018-06-11T22:29:04.656Z,17.20
2018-06-11T22:31:32.964Z,17.20
2018-06-11T22:34:01.440Z,17.20
2018-06-11T22:38:57.785Z,17.10
2018-06-11T22:41:26.084Z,17.10
2018-06-11T22:43:54.414Z,17.20
2018-06-11T22:46:22.698Z,17.10
2018-06-11T22:48:51.004Z,17.10
2018-06-11T22:51:19.297Z,17.10
2018-06-11T22:53:47.656Z,17.10
2018-06-11T22:56:16.008Z,17.10
2018-06-11T22:58:44.298Z,17.10
2018-06-11T23:01:12.600Z,17.10
2018-06-11T23:03:40.902Z,17.10
2018-06-11T23:06:09.189Z,17.20
2018-06-11T23:08:37.478Z,17.10
2018-06-11T23:11:05.831Z,17.20
2018-06-11T23:13:34.113Z,17.20
2018-06-11T23:16:02.428Z,17.20
2018-06-11T23:18:30.723Z,17.10
2018-06-11T23:23:27.089Z,17.10
2018-06-11T23:25:55.390Z,17.10
2018-06-11T23:28:23.678Z,17.00
2018-06-11T23:30:51.968Z,17.10
2018-06-11T23:33:20.258Z,17.00
2018-06-11T23:35:48.606Z,17.00
2018-06-11T23:38:16.911Z,17.00
2018-06-11T23:40:45.218Z,16.90
2018-06-11T23:43:13.588Z,16.90
2018-06-11T23:45:41.890Z,16.80
2018-06-11T23:48:10.217Z,16.80
2018-06-11T23:53:06.716Z,16.70
2018-06-11T23:55:35.116Z,16.70
2018-06-11T23:58:03.652Z,16.70
